sensor_id;sensor_type;location;lat;lon;timestamp;P1;durP1;ratioP1;P2;durP2;ratioP2
10894;SDS011;5500;49.886;8.074;2023-04-10T00:02:23;7.13;;;6.37;;
10894;SDS011;5500;49.886;8.074;2023-04-10T00:04:51;7.77;;;6.70;;
10894;SDS011;5500;49.886;8.074;2023-04-10T00:07:18;7.30;;;6.60;;
10894;SDS011;5500;49.886;8.074;2023-04-10T00:09:46;8.07;;;6.60;;
10894;SDS011;5500;49.886;8.074;2023-04-10T00:12:14;7.57;;;6.43;;
10894;SDS011;5500;49.886;8.074;2023-04-10T00:14:43;7.07;;;6.37;;
10894;SDS011;5500;49.886;8.074;2023-04-10T00:17:10;6.90;;;6.03;;
10894;SDS011;5500;49.886;8.074;2023-04-10T00:19:38;6.80;;;6.10;;
10894;SDS011;5500;49.886;8.074;2023-04-10T00:22:06;8.03;;;6.87;;
10894;SDS011;5500;49.886;8.074;2023-04-10T00:24:33;7.37;;;6.63;;
10894;SDS011;5500;49.886;8.074;2023-04-10T00:27:01;14.27;;;10.50;;
10894;SDS011;5500;49.886;8.074;2023-04-10T00:29:29;12.37;;;9.70;;
10894;SDS011;5500;49.886;8.074;2023-04-10T00:31:58;11.67;;;9.57;;
10894;SDS011;5500;49.886;8.074;2023-04-10T00:34:25;9.60;;;8.00;;
10894;SDS011;5500;49.886;8.074;2023-04-10T00:36:53;8.43;;;7.30;;
10894;SDS011;5500;49.886;8.074;2023-04-10T00:39:21;8.27;;;7.37;;
10894;SDS011;5500;49.886;8.074;2023-04-10T00:41:48;7.43;;;6.73;;
10894;SDS011;5500;49.886;8.074;2023-04-10T00:44:16;7.83;;;7.03;;
10894;SDS011;5500;49.886;8.074;2023-04-10T00:46:43;7.50;;;6.67;;
10894;SDS011;5500;49.886;8.074;2023-04-10T00:49:12;7.50;;;6.70;;
10894;SDS011;5500;49.886;8.074;2023-04-10T00:51:40;6.77;;;6.17;;
10894;SDS011;5500;49.886;8.074;2023-04-10T00:54:09;6.77;;;5.93;;
10894;SDS011;5500;49.886;8.074;2023-04-10T00:56:37;7.87;;;6.60;;
10894;SDS011;5500;49.886;8.074;2023-04-10T00:59:04;6.90;;;6.13;;
10894;SDS011;5500;49.886;8.074;2023-04-10T01:01:32;7.77;;;6.90;;
10894;SDS011;5500;49.886;8.074;2023-04-10T01:04:00;8.17;;;6.63;;
10894;SDS011;5500;49.886;8.074;2023-04-10T01:06:32;7.10;;;6.37;;
10894;SDS011;5500;49.886;8.074;2023-04-10T01:09:09;7.37;;;6.50;;
10894;SDS011;5500;49.886;8.074;2023-04-10T01:11:43;7.07;;;6.37;;
10894;SDS011;5500;49.886;8.074;2023-04-10T01:14:15;7.33;;;6.63;;
10894;SDS011;5500;49.886;8.074;2023-04-10T01:16:50;7.47;;;6.70;;
10894;SDS011;5500;49.886;8.074;2023-04-10T01:19:24;8.43;;;6.90;;
10894;SDS011;5500;49.886;8.074;2023-04-10T01:21:58;7.57;;;6.77;;
10894;SDS011;5500;49.886;8.074;2023-04-10T01:24:32;8.10;;;7.10;;
10894;SDS011;5500;49.886;8.074;2023-04-10T01:27:11;8.10;;;7.27;;
10894;SDS011;5500;49.886;8.074;2023-04-10T01:29:44;8.07;;;7.03;;
10894;SDS011;5500;49.886;8.074;2023-04-10T01:32:15;8.87;;;7.77;;
10894;SDS011;5500;49.886;8.074;2023-04-10T01:34:44;9.20;;;7.37;;
10894;SDS011;5500;49.886;8.074;2023-04-10T01:37:14;8.80;;;7.80;;
10894;SDS011;5500;49.886;8.074;2023-04-10T01:39:44;11.33;;;7.83;;
10894;SDS011;5500;49.886;8.074;2023-04-10T01:42:13;8.70;;;7.13;;
10894;SDS011;5500;49.886;8.074;2023-04-10T01:44:42;9.07;;;8.17;;
10894;SDS011;5500;49.886;8.074;2023-04-10T01:47:14;10.10;;;8.13;;
10894;SDS011;5500;49.886;8.074;2023-04-10T01:49:44;9.60;;;8.53;;
10894;SDS011;5500;49.886;8.074;2023-04-10T01:52:13;10.93;;;8.47;;
10894;SDS011;5500;49.886;8.074;2023-04-10T01:54:41;9.63;;;8.63;;
10894;SDS011;5500;49.886;8.074;2023-04-10T01:57:10;9.53;;;8.57;;
10894;SDS011;5500;49.886;8.074;2023-04-10T01:59:40;10.80;;;9.70;;
10894;SDS011;5500;49.886;8.074;2023-04-10T02:02:09;10.93;;;9.47;;
10894;SDS011;5500;49.886;8.074;2023-04-10T02:04:37;12.20;;;10.50;;
10894;SDS011;5500;49.886;8.074;2023-04-10T02:07:06;11.00;;;9.83;;
10894;SDS011;5500;49.886;8.074;2023-04-10T02:09:39;10.80;;;9.67;;
10894;SDS011;5500;49.886;8.074;2023-04-10T02:12:12;10.07;;;9.00;;
10894;SDS011;5500;49.886;8.074;2023-04-10T02:14:44;10.53;;;9.17;;
10894;SDS011;5500;49.886;8.074;2023-04-10T02:17:15;10.77;;;8.77;;
10894;SDS011;5500;49.886;8.074;2023-04-10T02:19:44;11.60;;;9.70;;
10894;SDS011;5500;49.886;8.074;2023-04-10T02:22:13;12.77;;;9.37;;
10894;SDS011;5500;49.886;8.074;2023-04-10T02:24:42;10.60;;;8.97;;
10894;SDS011;5500;49.886;8.074;2023-04-10T02:27:09;10.03;;;8.83;;
10894;SDS011;5500;49.886;8.074;2023-04-10T02:29:37;11.23;;;9.37;;
10894;SDS011;5500;49.886;8.074;2023-04-10T02:32:05;11.23;;;8.70;;
10894;SDS011;5500;49.886;8.074;2023-04-10T02:34:34;10.77;;;9.67;;
10894;SDS011;5500;49.886;8.074;2023-04-10T02:37:01;10.80;;;9.70;;
10894;SDS011;5500;49.886;8.074;2023-04-10T02:39:29;10.63;;;9.23;;
10894;SDS011;5500;49.886;8.074;2023-04-10T02:41:57;10.90;;;8.77;;
10894;SDS011;5500;49.886;8.074;2023-04-10T02:44:24;10.23;;;8.97;;
10894;SDS011;5500;49.886;8.074;2023-04-10T02:46:52;10.93;;;9.37;;
10894;SDS011;5500;49.886;8.074;2023-04-10T02:49:20;9.77;;;8.40;;
10894;SDS011;5500;49.886;8.074;2023-04-10T02:51:49;10.17;;;9.13;;
10894;SDS011;5500;49.886;8.074;2023-04-10T02:54:16;10.30;;;8.53;;
10894;SDS011;5500;49.886;8.074;2023-04-10T02:56:44;11.20;;;8.93;;
10894;SDS011;5500;49.886;8.074;2023-04-10T02:59:12;10.33;;;9.03;;
10894;SDS011;5500;49.886;8.074;2023-04-10T03:01:40;9.87;;;8.70;;
10894;SDS011;5500;49.886;8.074;2023-04-10T03:04:08;9.70;;;8.70;;
10894;SDS011;5500;49.886;8.074;2023-04-10T03:06:35;10.90;;;8.93;;
10894;SDS011;5500;49.886;8.074;2023-04-10T03:09:04;10.27;;;8.47;;
10894;SDS011;5500;49.886;8.074;2023-04-10T03:11:32;9.80;;;8.73;;
10894;SDS011;5500;49.886;8.074;2023-04-10T03:14:00;9.60;;;8.60;;
10894;SDS011;5500;49.886;8.074;2023-04-10T03:16:28;9.07;;;7.90;;
10894;SDS011;5500;49.886;8.074;2023-04-10T03:18:56;10.03;;;8.83;;
10894;SDS011;5500;49.886;8.074;2023-04-10T03:21:24;9.23;;;8.23;;
10894;SDS011;5500;49.886;8.074;2023-04-10T03:23:52;9.87;;;8.47;;
10894;SDS011;5500;49.886;8.074;2023-04-10T03:26:21;9.10;;;8.10;;
10894;SDS011;5500;49.886;8.074;2023-04-10T03:28:49;9.43;;;8.43;;
10894;SDS011;5500;49.886;8.074;2023-04-10T03:31:17;10.37;;;8.60;;
10894;SDS011;5500;49.886;8.074;2023-04-10T03:33:45;9.67;;;8.63;;
10894;SDS011;5500;49.886;8.074;2023-04-10T03:36:12;8.83;;;7.80;;
10894;SDS011;5500;49.886;8.074;2023-04-10T03:38:40;9.93;;;8.53;;
10894;SDS011;5500;49.886;8.074;2023-04-10T03:41:08;9.63;;;8.63;;
10894;SDS011;5500;49.886;8.074;2023-04-10T03:43:37;9.57;;;8.53;;
10894;SDS011;5500;49.886;8.074;2023-04-10T03:46:05;11.67;;;9.00;;
10894;SDS011;5500;49.886;8.074;2023-04-10T03:48:33;9.83;;;8.43;;
10894;SDS011;5500;49.886;8.074;2023-04-10T03:51:00;10.33;;;9.03;;
10894;SDS011;5500;49.886;8.074;2023-04-10T03:53:28;10.23;;;8.67;;
10894;SDS011;5500;49.886;8.074;2023-04-10T03:56:01;9.33;;;8.37;;
10894;SDS011;5500;49.886;8.074;2023-04-10T03:58:29;9.80;;;8.80;;
10894;SDS011;5500;49.886;8.074;2023-04-10T04:00:58;9.73;;;8.73;;
10894;SDS011;5500;49.886;8.074;2023-04-10T04:03:25;10.73;;;9.07;;
10894;SDS011;5500;49.886;8.074;2023-04-10T04:05:53;10.50;;;9.30;;
10894;SDS011;5500;49.886;8.074;2023-04-10T04:08:21;10.27;;;8.83;;
10894;SDS011;5500;49.886;8.074;2023-04-10T04:10:49;11.30;;;8.77;;
10894;SDS011;5500;49.886;8.074;2023-04-10T04:13:16;9.60;;;8.60;;
10894;SDS011;5500;49.886;8.074;2023-04-10T04:15:44;10.10;;;8.40;;
10894;SDS011;5500;49.886;8.074;2023-04-10T04:18:14;9.37;;;8.27;;
10894;SDS011;5500;49.886;8.074;2023-04-10T04:20:41;11.37;;;8.57;;
10894;SDS011;5500;49.886;8.074;2023-04-10T04:23:09;10.30;;;9.10;;
10894;SDS011;5500;49.886;8.074;2023-04-10T04:25:37;9.80;;;8.33;;
10894;SDS011;5500;49.886;8.074;2023-04-10T04:28:04;11.47;;;9.10;;
10894;SDS011;5500;49.886;8.074;2023-04-10T04:30:32;9.90;;;8.53;;
10894;SDS011;5500;49.886;8.074;2023-04-10T04:33:00;10.87;;;8.83;;
10894;SDS011;5500;49.886;8.074;2023-04-10T04:35:29;9.63;;;8.63;;
10894;SDS011;5500;49.886;8.074;2023-04-10T04:37:57;10.27;;;9.17;;
10894;SDS011;5500;49.886;8.074;2023-04-10T04:40:24;10.07;;;8.57;;
10894;SDS011;5500;49.886;8.074;2023-04-10T04:42:52;10.40;;;9.13;;
10894;SDS011;5500;49.886;8.074;2023-04-10T04:45:20;14.70;;;8.97;;
10894;SDS011;5500;49.886;8.074;2023-04-10T04:47:47;11.00;;;9.17;;
10894;SDS011;5500;49.886;8.074;2023-04-10T04:50:15;10.33;;;9.23;;
10894;SDS011;5500;49.886;8.074;2023-04-10T04:52:44;10.70;;;8.90;;
10894;SDS011;5500;49.886;8.074;2023-04-10T04:55:12;9.33;;;8.27;;
10894;SDS011;5500;49.886;8.074;2023-04-10T04:57:39;10.10;;;8.50;;
10894;SDS011;5500;49.886;8.074;2023-04-10T05:00:07;11.10;;;8.90;;
10894;SDS011;5500;49.886;8.074;2023-04-10T05:02:36;9.77;;;8.77;;
10894;SDS011;5500;49.886;8.074;2023-04-10T05:05:04;9.60;;;8.60;;
10894;SDS011;5500;49.886;8.074;2023-04-10T05:07:32;11.33;;;9.67;;
10894;SDS011;5500;49.886;8.074;2023-04-10T05:10:01;10.40;;;9.30;;
10894;SDS011;5500;49.886;8.074;2023-04-10T05:12:28;11.70;;;8.83;;
10894;SDS011;5500;49.886;8.074;2023-04-10T05:14:56;11.33;;;8.90;;
10894;SDS011;5500;49.886;8.074;2023-04-10T05:17:23;9.37;;;8.37;;
10894;SDS011;5500;49.886;8.074;2023-04-10T05:19:51;9.40;;;8.47;;
10894;SDS011;5500;49.886;8.074;2023-04-10T05:22:19;10.43;;;9.20;;
10894;SDS011;5500;49.886;8.074;2023-04-10T05:24:46;12.70;;;10.10;;
10894;SDS011;5500;49.886;8.074;2023-04-10T05:27:15;10.00;;;8.87;;
10894;SDS011;5500;49.886;8.074;2023-04-10T05:29:43;11.43;;;9.67;;
10894;SDS011;5500;49.886;8.074;2023-04-10T05:32:11;10.70;;;9.60;;
10894;SDS011;5500;49.886;8.074;2023-04-10T05:34:38;11.97;;;10.07;;
10894;SDS011;5500;49.886;8.074;2023-04-10T05:37:06;12.37;;;10.43;;
10894;SDS011;5500;49.886;8.074;2023-04-10T05:39:34;13.70;;;11.40;;
10894;SDS011;5500;49.886;8.074;2023-04-10T05:42:02;13.33;;;11.07;;
10894;SDS011;5500;49.886;8.074;2023-04-10T05:44:31;12.93;;;10.87;;
10894;SDS011;5500;49.886;8.074;2023-04-10T05:46:58;10.83;;;9.73;;
10894;SDS011;5500;49.886;8.074;2023-04-10T05:49:26;11.53;;;9.87;;
10894;SDS011;5500;49.886;8.074;2023-04-10T05:51:54;11.03;;;9.23;;
10894;SDS011;5500;49.886;8.074;2023-04-10T05:54:21;10.30;;;9.20;;
10894;SDS011;5500;49.886;8.074;2023-04-10T05:56:49;12.20;;;9.63;;
10894;SDS011;5500;49.886;8.074;2023-04-10T05:59:17;12.20;;;9.73;;
10894;SDS011;5500;49.886;8.074;2023-04-10T06:01:45;11.60;;;9.70;;
10894;SDS011;5500;49.886;8.074;2023-04-10T06:04:13;10.93;;;9.83;;
10894;SDS011;5500;49.886;8.074;2023-04-10T06:06:41;10.83;;;9.60;;
10894;SDS011;5500;49.886;8.074;2023-04-10T06:09:09;11.80;;;9.80;;
10894;SDS011;5500;49.886;8.074;2023-04-10T06:11:36;13.07;;;10.97;;
10894;SDS011;5500;49.886;8.074;2023-04-10T06:14:04;13.40;;;10.53;;
10894;SDS011;5500;49.886;8.074;2023-04-10T06:16:32;12.57;;;9.80;;
10894;SDS011;5500;49.886;8.074;2023-04-10T06:19:01;12.83;;;10.33;;
10894;SDS011;5500;49.886;8.074;2023-04-10T06:21:29;12.73;;;10.23;;
10894;SDS011;5500;49.886;8.074;2023-04-10T06:23:57;11.97;;;10.53;;
10894;SDS011;5500;49.886;8.074;2023-04-10T06:26:24;11.40;;;9.73;;
10894;SDS011;5500;49.886;8.074;2023-04-10T06:28:52;10.70;;;9.17;;
10894;SDS011;5500;49.886;8.074;2023-04-10T06:31:20;12.23;;;10.20;;
10894;SDS011;5500;49.886;8.074;2023-04-10T06:33:48;11.27;;;10.10;;
10894;SDS011;5500;49.886;8.074;2023-04-10T06:36:17;11.90;;;10.30;;
10894;SDS011;5500;49.886;8.074;2023-04-10T06:38:45;12.47;;;9.50;;
10894;SDS011;5500;49.886;8.074;2023-04-10T06:41:12;12.10;;;9.80;;
10894;SDS011;5500;49.886;8.074;2023-04-10T06:43:40;10.60;;;9.50;;
10894;SDS011;5500;49.886;8.074;2023-04-10T06:46:07;11.67;;;9.53;;
10894;SDS011;5500;49.886;8.074;2023-04-10T06:48:35;10.47;;;9.30;;
10894;SDS011;5500;49.886;8.074;2023-04-10T06:51:03;10.63;;;9.07;;
10894;SDS011;5500;49.886;8.074;2023-04-10T06:53:32;11.33;;;9.47;;
10894;SDS011;5500;49.886;8.074;2023-04-10T06:56:00;13.63;;;9.33;;
10894;SDS011;5500;49.886;8.074;2023-04-10T06:58:29;11.57;;;8.83;;
10894;SDS011;5500;49.886;8.074;2023-04-10T07:00:57;10.80;;;9.70;;
10894;SDS011;5500;49.886;8.074;2023-04-10T07:03:29;11.73;;;9.43;;
10894;SDS011;5500;49.886;8.074;2023-04-10T07:05:57;10.73;;;9.60;;
10894;SDS011;5500;49.886;8.074;2023-04-10T07:08:27;10.50;;;9.40;;
10894;SDS011;5500;49.886;8.074;2023-04-10T07:10:56;11.07;;;9.30;;
10894;SDS011;5500;49.886;8.074;2023-04-10T07:13:24;13.00;;;9.73;;
10894;SDS011;5500;49.886;8.074;2023-04-10T07:15:52;10.73;;;8.73;;
10894;SDS011;5500;49.886;8.074;2023-04-10T07:18:20;10.97;;;9.63;;
10894;SDS011;5500;49.886;8.074;2023-04-10T07:20:47;12.17;;;9.73;;
10894;SDS011;5500;49.886;8.074;2023-04-10T07:23:17;12.23;;;9.60;;
10894;SDS011;5500;49.886;8.074;2023-04-10T07:25:45;10.80;;;9.63;;
10894;SDS011;5500;49.886;8.074;2023-04-10T07:28:14;13.13;;;10.27;;
10894;SDS011;5500;49.886;8.074;2023-04-10T07:30:42;12.33;;;9.87;;
10894;SDS011;5500;49.886;8.074;2023-04-10T07:33:09;13.27;;;10.13;;
10894;SDS011;5500;49.886;8.074;2023-04-10T07:35:38;12.23;;;9.80;;
10894;SDS011;5500;49.886;8.074;2023-04-10T07:38:05;11.60;;;9.40;;
10894;SDS011;5500;49.886;8.074;2023-04-10T07:40:33;11.33;;;9.73;;
10894;SDS011;5500;49.886;8.074;2023-04-10T07:43:01;12.43;;;10.47;;
10894;SDS011;5500;49.886;8.074;2023-04-10T07:45:30;11.73;;;10.33;;
10894;SDS011;5500;49.886;8.074;2023-04-10T07:47:58;11.17;;;9.73;;
10894;SDS011;5500;49.886;8.074;2023-04-10T07:50:27;11.57;;;10.30;;
10894;SDS011;5500;49.886;8.074;2023-04-10T07:52:55;11.30;;;10.10;;
10894;SDS011;5500;49.886;8.074;2023-04-10T07:55:24;11.33;;;10.13;;
10894;SDS011;5500;49.886;8.074;2023-04-10T07:57:51;12.60;;;10.83;;
10894;SDS011;5500;49.886;8.074;2023-04-10T08:00:19;11.30;;;9.83;;
10894;SDS011;5500;49.886;8.074;2023-04-10T08:02:48;10.60;;;9.50;;
10894;SDS011;5500;49.886;8.074;2023-04-10T08:05:16;10.67;;;9.23;;
10894;SDS011;5500;49.886;8.074;2023-04-10T08:07:44;11.60;;;9.40;;
10894;SDS011;5500;49.886;8.074;2023-04-10T08:10:12;9.97;;;8.93;;
10894;SDS011;5500;49.886;8.074;2023-04-10T08:12:39;10.13;;;8.93;;
10894;SDS011;5500;49.886;8.074;2023-04-10T08:15:07;10.53;;;9.17;;
10894;SDS011;5500;49.886;8.074;2023-04-10T08:17:35;10.90;;;9.50;;
10894;SDS011;5500;49.886;8.074;2023-04-10T08:20:05;9.30;;;8.37;;
10894;SDS011;5500;49.886;8.074;2023-04-10T08:22:34;9.73;;;8.73;;
10894;SDS011;5500;49.886;8.074;2023-04-10T08:25:02;11.37;;;9.00;;
10894;SDS011;5500;49.886;8.074;2023-04-10T08:27:30;9.87;;;8.87;;
10894;SDS011;5500;49.886;8.074;2023-04-10T08:29:57;8.47;;;7.57;;
10894;SDS011;5500;49.886;8.074;2023-04-10T08:32:25;8.27;;;7.43;;
10894;SDS011;5500;49.886;8.074;2023-04-10T08:34:53;8.63;;;7.83;;
10894;SDS011;5500;49.886;8.074;2023-04-10T08:37:22;9.07;;;7.93;;
10894;SDS011;5500;49.886;8.074;2023-04-10T08:39:51;9.53;;;7.47;;
10894;SDS011;5500;49.886;8.074;2023-04-10T08:42:19;9.20;;;8.30;;
10894;SDS011;5500;49.886;8.074;2023-04-10T08:44:47;8.90;;;7.97;;
10894;SDS011;5500;49.886;8.074;2023-04-10T08:47:15;8.43;;;7.63;;
10894;SDS011;5500;49.886;8.074;2023-04-10T08:49:50;8.90;;;8.00;;
10894;SDS011;5500;49.886;8.074;2023-04-10T08:52:23;9.97;;;7.30;;
10894;SDS011;5500;49.886;8.074;2023-04-10T08:54:53;8.17;;;7.40;;
10894;SDS011;5500;49.886;8.074;2023-04-10T08:57:21;7.73;;;7.03;;
10894;SDS011;5500;49.886;8.074;2023-04-10T08:59:49;8.10;;;7.30;;
10894;SDS011;5500;49.886;8.074;2023-04-10T09:02:17;6.90;;;6.27;;
10894;SDS011;5500;49.886;8.074;2023-04-10T09:04:46;7.93;;;6.70;;
10894;SDS011;5500;49.886;8.074;2023-04-10T09:07:15;7.47;;;6.77;;
10894;SDS011;5500;49.886;8.074;2023-04-10T09:09:44;7.83;;;7.03;;
10894;SDS011;5500;49.886;8.074;2023-04-10T09:12:12;7.30;;;6.43;;
10894;SDS011;5500;49.886;8.074;2023-04-10T09:14:40;8.03;;;6.83;;
10894;SDS011;5500;49.886;8.074;2023-04-10T09:17:10;8.77;;;7.87;;
10894;SDS011;5500;49.886;8.074;2023-04-10T09:19:39;7.13;;;6.43;;
10894;SDS011;5500;49.886;8.074;2023-04-10T09:22:08;8.30;;;7.27;;
10894;SDS011;5500;49.886;8.074;2023-04-10T09:24:36;9.17;;;7.20;;
10894;SDS011;5500;49.886;8.074;2023-04-10T09:27:06;8.13;;;7.33;;
10894;SDS011;5500;49.886;8.074;2023-04-10T09:29:38;7.63;;;6.93;;
10894;SDS011;5500;49.886;8.074;2023-04-10T09:32:07;8.30;;;7.30;;
10894;SDS011;5500;49.886;8.074;2023-04-10T09:34:38;7.90;;;7.10;;
10894;SDS011;5500;49.886;8.074;2023-04-10T09:37:18;8.10;;;7.30;;
10894;SDS011;5500;49.886;8.074;2023-04-10T09:39:47;7.27;;;6.40;;
10894;SDS011;5500;49.886;8.074;2023-04-10T09:42:17;7.60;;;6.90;;
10894;SDS011;5500;49.886;8.074;2023-04-10T09:44:56;7.37;;;6.70;;
10894;SDS011;5500;49.886;8.074;2023-04-10T09:47:24;7.03;;;6.33;;
10894;SDS011;5500;49.886;8.074;2023-04-10T09:49:52;7.20;;;6.50;;
10894;SDS011;5500;49.886;8.074;2023-04-10T09:52:21;7.03;;;6.33;;
10894;SDS011;5500;49.886;8.074;2023-04-10T09:54:52;7.23;;;6.53;;
10894;SDS011;5500;49.886;8.074;2023-04-10T09:57:22;7.60;;;6.90;;
10894;SDS011;5500;49.886;8.074;2023-04-10T09:59:51;6.90;;;6.27;;
10894;SDS011;5500;49.886;8.074;2023-04-10T10:02:20;7.40;;;6.70;;
10894;SDS011;5500;49.886;8.074;2023-04-10T10:04:49;6.70;;;6.10;;
10894;SDS011;5500;49.886;8.074;2023-04-10T10:07:18;6.57;;;5.97;;
10894;SDS011;5500;49.886;8.074;2023-04-10T10:09:47;6.90;;;6.30;;
10894;SDS011;5500;49.886;8.074;2023-04-10T10:12:18;7.27;;;6.57;;
10894;SDS011;5500;49.886;8.074;2023-04-10T10:14:53;6.60;;;6.00;;
10894;SDS011;5500;49.886;8.074;2023-04-10T10:17:24;7.33;;;6.53;;
10894;SDS011;5500;49.886;8.074;2023-04-10T10:19:55;7.03;;;5.97;;
10894;SDS011;5500;49.886;8.074;2023-04-10T10:22:29;7.30;;;6.50;;
10894;SDS011;5500;49.886;8.074;2023-04-10T10:24:56;7.73;;;6.97;;
10894;SDS011;5500;49.886;8.074;2023-04-10T10:27:27;6.33;;;5.73;;
10894;SDS011;5500;49.886;8.074;2023-04-10T10:29:55;6.47;;;5.87;;
10894;SDS011;5500;49.886;8.074;2023-04-10T10:32:22;5.67;;;4.43;;
10894;SDS011;5500;49.886;8.074;2023-04-10T10:34:51;5.00;;;4.50;;
10894;SDS011;5500;49.886;8.074;2023-04-10T10:37:19;4.43;;;4.03;;
10894;SDS011;5500;49.886;8.074;2023-04-10T10:39:49;4.60;;;3.93;;
10894;SDS011;5500;49.886;8.074;2023-04-10T10:42:25;4.50;;;4.10;;
10894;SDS011;5500;49.886;8.074;2023-04-10T10:44:59;5.37;;;4.50;;
10894;SDS011;5500;49.886;8.074;2023-04-10T10:47:33;5.10;;;3.80;;
10894;SDS011;5500;49.886;8.074;2023-04-10T10:50:07;4.37;;;3.97;;
10894;SDS011;5500;49.886;8.074;2023-04-10T10:52:38;5.30;;;4.80;;
10894;SDS011;5500;49.886;8.074;2023-04-10T10:55:29;4.20;;;3.80;;
10894;SDS011;5500;49.886;8.074;2023-04-10T10:58:04;4.20;;;3.80;;
10894;SDS011;5500;49.886;8.074;2023-04-10T11:03:36;4.77;;;4.30;;
10894;SDS011;5500;49.886;8.074;2023-04-10T11:06:14;4.50;;;4.10;;
10894;SDS011;5500;49.886;8.074;2023-04-10T11:08:42;4.83;;;4.43;;
10894;SDS011;5500;49.886;8.074;2023-04-10T11:11:12;4.87;;;3.57;;
10894;SDS011;5500;49.886;8.074;2023-04-10T11:16:47;4.47;;;4.07;;
10894;SDS011;5500;49.886;8.074;2023-04-10T11:19:15;6.10;;;4.07;;
10894;SDS011;5500;49.886;8.074;2023-04-10T11:22:03;3.50;;;3.20;;
10894;SDS011;5500;49.886;8.074;2023-04-10T11:24:53;4.00;;;3.60;;
10894;SDS011;5500;49.886;8.074;2023-04-10T11:27:44;3.70;;;3.40;;
10894;SDS011;5500;49.886;8.074;2023-04-10T11:30:26;3.27;;;2.97;;
10894;SDS011;5500;49.886;8.074;2023-04-10T11:33:07;3.60;;;3.30;;
10894;SDS011;5500;49.886;8.074;2023-04-10T11:35:35;3.80;;;3.50;;
10894;SDS011;5500;49.886;8.074;2023-04-10T11:38:13;3.80;;;3.40;;
10894;SDS011;5500;49.886;8.074;2023-04-10T11:40:52;3.60;;;3.30;;
10894;SDS011;5500;49.886;8.074;2023-04-10T11:43:24;3.30;;;3.00;;
10894;SDS011;5500;49.886;8.074;2023-04-10T11:46:01;3.43;;;3.13;;
10894;SDS011;5500;49.886;8.074;2023-04-10T11:48:29;3.23;;;2.93;;
10894;SDS011;5500;49.886;8.074;2023-04-10T11:50:58;3.73;;;3.43;;
10894;SDS011;5500;49.886;8.074;2023-04-10T11:53:27;4.43;;;3.63;;
10894;SDS011;5500;49.886;8.074;2023-04-10T11:55:55;3.80;;;3.50;;
10894;SDS011;5500;49.886;8.074;2023-04-10T11:58:23;3.60;;;3.30;;
10894;SDS011;5500;49.886;8.074;2023-04-10T12:01:01;3.63;;;3.33;;
10894;SDS011;5500;49.886;8.074;2023-04-10T12:03:54;5.60;;;3.60;;
10894;SDS011;5500;49.886;8.074;2023-04-10T12:06:23;3.63;;;3.33;;
10894;SDS011;5500;49.886;8.074;2023-04-10T12:08:50;3.30;;;3.03;;
10894;SDS011;5500;49.886;8.074;2023-04-10T12:11:19;3.70;;;3.40;;
10894;SDS011;5500;49.886;8.074;2023-04-10T12:13:50;4.40;;;3.73;;
10894;SDS011;5500;49.886;8.074;2023-04-10T12:16:20;5.00;;;3.47;;
10894;SDS011;5500;49.886;8.074;2023-04-10T12:18:48;4.63;;;3.40;;
10894;SDS011;5500;49.886;8.074;2023-04-10T12:21:18;3.83;;;3.53;;
10894;SDS011;5500;49.886;8.074;2023-04-10T12:23:46;3.67;;;3.37;;
10894;SDS011;5500;49.886;8.074;2023-04-10T12:26:14;3.60;;;3.27;;
10894;SDS011;5500;49.886;8.074;2023-04-10T12:28:49;3.40;;;3.10;;
10894;SDS011;5500;49.886;8.074;2023-04-10T12:31:19;3.77;;;3.47;;
10894;SDS011;5500;49.886;8.074;2023-04-10T12:33:53;3.73;;;3.43;;
10894;SDS011;5500;49.886;8.074;2023-04-10T12:36:23;3.17;;;2.87;;
10894;SDS011;5500;49.886;8.074;2023-04-10T12:38:52;2.93;;;2.73;;
10894;SDS011;5500;49.886;8.074;2023-04-10T12:41:36;3.00;;;2.80;;
10894;SDS011;5500;49.886;8.074;2023-04-10T12:44:07;3.37;;;2.90;;
10894;SDS011;5500;49.886;8.074;2023-04-10T12:46:38;4.13;;;2.53;;
10894;SDS011;5500;49.886;8.074;2023-04-10T12:49:10;3.43;;;2.50;;
10894;SDS011;5500;49.886;8.074;2023-04-10T12:51:45;2.97;;;2.70;;
10894;SDS011;5500;49.886;8.074;2023-04-10T12:54:37;2.60;;;2.40;;
10894;SDS011;5500;49.886;8.074;2023-04-10T12:57:33;2.53;;;2.33;;
10894;SDS011;5500;49.886;8.074;2023-04-10T13:00:31;2.10;;;2.00;;
10894;SDS011;5500;49.886;8.074;2023-04-10T13:03:08;2.50;;;2.30;;
10894;SDS011;5500;49.886;8.074;2023-04-10T13:05:36;2.80;;;2.60;;
10894;SDS011;5500;49.886;8.074;2023-04-10T13:08:04;2.47;;;2.27;;
10894;SDS011;5500;49.886;8.074;2023-04-10T13:10:32;2.40;;;2.20;;
10894;SDS011;5500;49.886;8.074;2023-04-10T13:13:03;2.37;;;2.17;;
10894;SDS011;5500;49.886;8.074;2023-04-10T13:15:32;2.20;;;2.00;;
10894;SDS011;5500;49.886;8.074;2023-04-10T13:18:03;2.17;;;2.07;;
10894;SDS011;5500;49.886;8.074;2023-04-10T13:20:35;2.27;;;2.07;;
10894;SDS011;5500;49.886;8.074;2023-04-10T13:23:03;2.40;;;2.20;;
10894;SDS011;5500;49.886;8.074;2023-04-10T13:25:31;2.47;;;2.23;;
10894;SDS011;5500;49.886;8.074;2023-04-10T13:28:00;4.60;;;2.30;;
10894;SDS011;5500;49.886;8.074;2023-04-10T13:30:28;1.93;;;1.83;;
10894;SDS011;5500;49.886;8.074;2023-04-10T13:32:56;3.50;;;2.70;;
10894;SDS011;5500;49.886;8.074;2023-04-10T13:35:27;2.60;;;2.40;;
10894;SDS011;5500;49.886;8.074;2023-04-10T13:37:56;2.80;;;2.60;;
10894;SDS011;5500;49.886;8.074;2023-04-10T13:40:24;2.40;;;2.20;;
10894;SDS011;5500;49.886;8.074;2023-04-10T13:42:52;2.60;;;2.40;;
10894;SDS011;5500;49.886;8.074;2023-04-10T13:45:20;2.40;;;2.20;;
10894;SDS011;5500;49.886;8.074;2023-04-10T13:47:48;2.77;;;2.10;;
10894;SDS011;5500;49.886;8.074;2023-04-10T13:50:16;2.50;;;2.30;;
10894;SDS011;5500;49.886;8.074;2023-04-10T13:52:44;2.57;;;2.37;;
10894;SDS011;5500;49.886;8.074;2023-04-10T13:55:13;2.60;;;2.40;;
10894;SDS011;5500;49.886;8.074;2023-04-10T13:57:40;2.73;;;2.40;;
10894;SDS011;5500;49.886;8.074;2023-04-10T14:00:08;2.33;;;2.13;;
10894;SDS011;5500;49.886;8.074;2023-04-10T14:02:37;2.20;;;2.00;;
10894;SDS011;5500;49.886;8.074;2023-04-10T14:05:06;2.30;;;2.10;;
10894;SDS011;5500;49.886;8.074;2023-04-10T14:07:39;2.30;;;2.10;;
10894;SDS011;5500;49.886;8.074;2023-04-10T14:10:07;3.73;;;3.40;;
10894;SDS011;5500;49.886;8.074;2023-04-10T14:12:37;2.47;;;2.27;;
10894;SDS011;5500;49.886;8.074;2023-04-10T14:15:06;3.17;;;2.30;;
10894;SDS011;5500;49.886;8.074;2023-04-10T14:17:47;2.40;;;2.20;;
10894;SDS011;5500;49.886;8.074;2023-04-10T14:20:17;2.40;;;2.20;;
10894;SDS011;5500;49.886;8.074;2023-04-10T14:22:45;3.47;;;2.07;;
10894;SDS011;5500;49.886;8.074;2023-04-10T14:25:13;2.27;;;2.07;;
10894;SDS011;5500;49.886;8.074;2023-04-10T14:27:43;2.33;;;2.10;;
10894;SDS011;5500;49.886;8.074;2023-04-10T14:30:12;2.50;;;2.30;;
10894;SDS011;5500;49.886;8.074;2023-04-10T14:32:40;4.60;;;2.20;;
10894;SDS011;5500;49.886;8.074;2023-04-10T14:35:09;2.10;;;1.90;;
10894;SDS011;5500;49.886;8.074;2023-04-10T14:37:37;2.23;;;2.00;;
10894;SDS011;5500;49.886;8.074;2023-04-10T14:40:06;1.73;;;1.63;;
10894;SDS011;5500;49.886;8.074;2023-04-10T14:42:37;1.70;;;1.60;;
10894;SDS011;5500;49.886;8.074;2023-04-10T14:45:07;2.10;;;1.90;;
10894;SDS011;5500;49.886;8.074;2023-04-10T14:47:36;2.03;;;1.90;;
10894;SDS011;5500;49.886;8.074;2023-04-10T14:50:04;2.03;;;1.90;;
10894;SDS011;5500;49.886;8.074;2023-04-10T14:52:36;1.60;;;1.50;;
10894;SDS011;5500;49.886;8.074;2023-04-10T14:55:04;1.80;;;1.70;;
10894;SDS011;5500;49.886;8.074;2023-04-10T14:57:32;1.83;;;1.73;;
10894;SDS011;5500;49.886;8.074;2023-04-10T15:00:01;2.07;;;1.87;;
10894;SDS011;5500;49.886;8.074;2023-04-10T15:02:30;2.07;;;1.90;;
10894;SDS011;5500;49.886;8.074;2023-04-10T15:04:58;3.20;;;1.70;;
10894;SDS011;5500;49.886;8.074;2023-04-10T15:07:26;1.87;;;1.77;;
10894;SDS011;5500;49.886;8.074;2023-04-10T15:09:55;2.00;;;1.67;;
10894;SDS011;5500;49.886;8.074;2023-04-10T15:12:23;2.13;;;1.93;;
10894;SDS011;5500;49.886;8.074;2023-04-10T15:14:53;2.03;;;1.90;;
10894;SDS011;5500;49.886;8.074;2023-04-10T15:17:23;2.03;;;1.80;;